Decker, Montana
Current Conditions -  °F | °C
As of 7:53 AM on Sunday 21 Dec 2014 (Local Time) from KSHR Reporting Station
Overcast Overcast  
Wind Chill: 27°   Ceiling: 7500
Heat Index: 27°   Visibility: 10mi
Dew Point: 22°   Wind: 3mph
Humidity: 81%   Direction: 340°NNW
Pressure: 29.46"   Gusts: NA
Location:  45.03°N, 106.84°W
Report Text: KSHR 211453Z AUTO 34003KT 10SM OVC075 M03/M06 A2946 RMK AO2 SLP013 T10281056 56014
Loading
Personal Weather Stations






























Interactive Weather Map New forecast layout! Learn more

10-Day Weather Forecast

Advertisements
Track Severe Weather on mobile